createdAt,value
2022-08-17T00:00:43.513Z,26.10
2022-08-17T00:03:15.140Z,26.00
2022-08-17T00:05:49.098Z,26.00
2022-08-17T00:08:20.252Z,26.00
2022-08-17T00:10:49.487Z,26.00
2022-08-17T00:13:21.333Z,25.90
2022-08-17T00:15:49.846Z,25.90
2022-08-17T00:19:04.185Z,25.90
2022-08-17T00:21:11.779Z,25.80
2022-08-17T00:23:44.250Z,25.90
2022-08-17T00:26:44.352Z,25.80
2022-08-17T00:29:05.817Z,25.80
2022-08-17T00:31:36.292Z,25.80
2022-08-17T00:34:06.880Z,25.80
2022-08-17T00:36:36.858Z,25.70
2022-08-17T00:39:07.333Z,25.70
2022-08-17T00:41:35.951Z,25.70
2022-08-17T00:44:09.979Z,25.70
2022-08-17T00:46:43.242Z,25.70
2022-08-17T00:49:19.412Z,25.60
2022-08-17T00:51:53.818Z,25.60
2022-08-17T00:54:31.473Z,25.60
2022-08-17T00:57:05.505Z,25.50
2022-08-17T00:59:38.802Z,25.50
2022-08-17T01:02:09.875Z,25.50
2022-08-17T01:04:38.780Z,25.40
2022-08-17T01:07:11.264Z,25.30
2022-08-17T01:09:42.703Z,25.20
2022-08-17T01:12:12.383Z,25.10
2022-08-17T01:14:41.415Z,25.10
2022-08-17T01:17:12.362Z,25.10
2022-08-17T01:19:45.314Z,25.20
2022-08-17T01:22:21.240Z,25.10
2022-08-17T01:24:53.610Z,25.10
2022-08-17T01:27:22.968Z,25.10
2022-08-17T01:29:58.642Z,25.00
2022-08-17T01:32:30.452Z,25.00
2022-08-17T01:35:00.690Z,25.10
2022-08-17T01:37:35.383Z,25.00
2022-08-17T01:40:10.385Z,24.90
2022-08-17T01:42:44.270Z,24.90
2022-08-17T01:45:17.583Z,25.00
2022-08-17T01:47:46.344Z,25.00
2022-08-17T01:50:17.438Z,24.90
2022-08-17T01:52:49.756Z,24.90
2022-08-17T01:55:25.864Z,24.90
2022-08-17T01:57:55.650Z,24.80
2022-08-17T02:00:24.103Z,24.80
2022-08-17T02:02:52.532Z,24.70
2022-08-17T02:05:20.981Z,24.70
2022-08-17T02:08:00.349Z,24.60
2022-08-17T02:10:33.699Z,24.70
2022-08-17T02:13:02.747Z,24.70
2022-08-17T02:15:32.029Z,24.60
2022-08-17T02:18:00.759Z,24.60
2022-08-17T02:20:41.790Z,24.60
2022-08-17T02:23:13.256Z,24.50
2022-08-17T02:25:47.783Z,24.60
2022-08-17T02:28:16.538Z,24.50
2022-08-17T02:30:59.265Z,24.50
2022-08-17T02:33:42.054Z,24.40
2022-08-17T02:36:14.610Z,24.40
2022-08-17T02:38:44.651Z,24.30
2022-08-17T02:41:13.829Z,24.30
2022-08-17T02:43:44.893Z,24.30
2022-08-17T02:46:13.782Z,24.20
2022-08-17T02:48:42.094Z,24.20
2022-08-17T02:51:10.600Z,24.10
2022-08-17T02:53:38.919Z,24.20
2022-08-17T02:56:08.681Z,24.20
2022-08-17T02:58:37.046Z,24.20
2022-08-17T03:01:06.878Z,24.20
2022-08-17T03:03:36.089Z,24.20
2022-08-17T03:06:05.423Z,24.20
2022-08-17T03:08:33.807Z,24.20
2022-08-17T03:11:02.097Z,24.10
2022-08-17T03:13:32.009Z,24.00
2022-08-17T03:16:00.779Z,24.00
2022-08-17T03:18:29.195Z,24.00
2022-08-17T03:21:01.738Z,24.00
2022-08-17T03:23:31.155Z,24.00
2022-08-17T03:26:02.751Z,23.90
2022-08-17T03:28:32.398Z,23.80
2022-08-17T03:31:03.147Z,23.70
2022-08-17T03:33:33.724Z,23.70
2022-08-17T03:36:04.311Z,23.60
2022-08-17T03:38:39.468Z,23.60
2022-08-17T03:41:08.603Z,23.60
2022-08-17T03:43:38.243Z,23.60
2022-08-17T03:46:28.837Z,23.60
2022-08-17T03:49:21.238Z,23.60
2022-08-17T03:52:06.732Z,23.70
2022-08-17T03:54:52.294Z,23.60
2022-08-17T03:57:20.742Z,23.60
2022-08-17T03:59:51.064Z,23.60
2022-08-17T04:02:23.543Z,23.60
2022-08-17T04:04:54.364Z,23.60
2022-08-17T04:07:24.965Z,23.50
2022-08-17T04:09:53.457Z,23.60
2022-08-17T04:12:25.644Z,23.50
2022-08-17T04:14:56.388Z,23.50
2022-08-17T04:17:27.453Z,23.50
2022-08-17T04:19:57.102Z,23.50
2022-08-17T04:22:33.203Z,23.50
2022-08-17T04:25:05.462Z,23.50
2022-08-17T04:27:33.998Z,23.60
2022-08-17T04:30:03.719Z,23.60
2022-08-17T04:33:03.494Z,23.60
2022-08-17T04:35:27.303Z,23.70
2022-08-17T04:37:55.400Z,23.80
2022-08-17T04:40:42.439Z,23.80
2022-08-17T04:43:14.275Z,23.90
2022-08-17T04:45:55.544Z,23.10
2022-08-17T04:48:35.368Z,23.50
2022-08-17T04:51:10.171Z,23.90
2022-08-17T04:53:40.438Z,24.20
2022-08-17T04:56:16.045Z,24.40
2022-08-17T04:58:46.324Z,24.50
2022-08-17T05:01:17.341Z,24.60
2022-08-17T05:03:51.992Z,24.70
2022-08-17T05:06:20.283Z,24.80
2022-08-17T05:08:48.541Z,24.90
2022-08-17T05:11:16.997Z,25.00
2022-08-17T05:13:45.231Z,25.20
2022-08-17T05:16:15.081Z,25.40
2022-08-17T05:18:45.775Z,25.60
2022-08-17T05:21:16.572Z,25.80
2022-08-17T05:23:50.272Z,26.00
2022-08-17T05:26:25.915Z,26.10
2022-08-17T05:28:59.479Z,26.30
2022-08-17T05:31:29.795Z,26.50
2022-08-17T05:34:00.917Z,26.60
2022-08-17T05:36:43.414Z,26.80
2022-08-17T05:39:16.522Z,27.00
2022-08-17T05:41:48.111Z,27.30
2022-08-17T05:44:17.203Z,27.50
2022-08-17T05:46:49.934Z,27.80
2022-08-17T05:49:22.453Z,27.80
2022-08-17T05:52:09.434Z,28.00
2022-08-17T05:54:50.107Z,28.20
2022-08-17T05:57:53.048Z,28.50
2022-08-17T06:00:30.193Z,28.70
2022-08-17T06:03:23.689Z,28.80
2022-08-17T06:06:22.050Z,29.00
2022-08-17T06:08:57.846Z,29.00
2022-08-17T06:11:38.082Z,29.30
2022-08-17T06:14:22.232Z,29.50
2022-08-17T06:16:56.247Z,29.60
2022-08-17T06:19:35.049Z,29.90
2022-08-17T06:22:05.881Z,30.00
2022-08-17T06:24:38.896Z,30.20
2022-08-17T06:27:20.445Z,30.40
2022-08-17T06:29:55.048Z,30.50
2022-08-17T06:32:23.414Z,30.50
2022-08-17T06:34:53.808Z,30.60
2022-08-17T06:37:39.239Z,30.70
2022-08-17T06:40:31.879Z,30.60
2022-08-17T06:43:14.106Z,30.60
2022-08-17T06:45:49.305Z,30.60
2022-08-17T06:48:25.618Z,30.80
2022-08-17T06:51:00.128Z,30.90
2022-08-17T06:53:35.923Z,31.20
2022-08-17T06:56:08.789Z,31.40
2022-08-17T06:58:40.307Z,31.60
2022-08-17T07:01:11.687Z,31.70
2022-08-17T07:03:46.174Z,31.70
2022-08-17T07:06:20.789Z,31.60
2022-08-17T07:08:56.673Z,31.70
2022-08-17T07:11:31.415Z,31.70
2022-08-17T07:14:17.125Z,31.90
2022-08-17T07:16:51.428Z,32.00
2022-08-17T07:19:23.177Z,32.20
2022-08-17T07:21:58.544Z,32.20
2022-08-17T07:24:35.725Z,32.30
2022-08-17T07:27:09.862Z,32.40
2022-08-17T07:29:46.428Z,32.50
2022-08-17T07:32:19.066Z,32.60
2022-08-17T07:35:21.222Z,32.60
2022-08-17T07:38:25.185Z,32.70
2022-08-17T07:41:03.601Z,32.70
2022-08-17T07:43:34.060Z,32.90
2022-08-17T07:46:24.991Z,33.10
2022-08-17T07:48:55.436Z,33.40
2022-08-17T07:51:27.750Z,33.60
2022-08-17T07:54:13.596Z,33.80
2022-08-17T07:56:45.968Z,33.90
2022-08-17T07:59:18.152Z,34.00
2022-08-17T08:02:06.148Z,34.20
2022-08-17T08:04:59.158Z,34.60
2022-08-17T08:07:30.445Z,34.70
2022-08-17T08:10:09.598Z,34.80
2022-08-17T08:12:42.092Z,34.90
2022-08-17T08:15:19.092Z,35.10
2022-08-17T08:17:51.966Z,35.00
2022-08-17T08:20:51.379Z,35.00
2022-08-17T08:23:25.724Z,35.00
2022-08-17T08:26:05.248Z,35.20
2022-08-17T08:28:44.566Z,35.30
2022-08-17T08:31:25.301Z,35.60
2022-08-17T08:34:09.176Z,35.60
2022-08-17T08:37:17.645Z,35.80
2022-08-17T08:39:59.047Z,36.00
2022-08-17T08:42:36.376Z,35.70
2022-08-17T08:45:13.781Z,35.60
2022-08-17T08:48:05.105Z,35.40
2022-08-17T08:50:43.859Z,35.30
2022-08-17T08:53:23.552Z,35.30
2022-08-17T08:55:57.346Z,35.40
2022-08-17T08:58:42.326Z,35.50
2022-08-17T09:01:19.530Z,35.50
2022-08-17T09:04:25.857Z,35.40
2022-08-17T09:07:07.224Z,35.40
2022-08-17T09:09:46.672Z,35.60
2022-08-17T09:12:21.767Z,35.60
2022-08-17T09:14:59.583Z,35.40
2022-08-17T09:17:37.615Z,35.20
2022-08-17T09:20:27.509Z,35.00
2022-08-17T09:23:00.873Z,34.90
2022-08-17T09:25:36.527Z,34.70
2022-08-17T09:28:08.489Z,34.50
2022-08-17T09:30:45.535Z,34.50
2022-08-17T09:33:17.022Z,34.60
2022-08-17T09:35:50.372Z,34.70
2022-08-17T09:38:32.158Z,34.70
2022-08-17T09:41:10.627Z,34.70
2022-08-17T09:43:45.830Z,34.80
2022-08-17T09:46:19.522Z,34.70
2022-08-17T09:48:55.686Z,34.70
2022-08-17T09:51:30.393Z,34.80
2022-08-17T09:54:27.767Z,34.90
2022-08-17T09:57:25.828Z,35.00
2022-08-17T10:00:08.074Z,34.90
2022-08-17T10:03:09.944Z,35.00
2022-08-17T10:05:46.735Z,34.90
2022-08-17T10:08:25.593Z,34.90
2022-08-17T10:11:07.055Z,35.00
2022-08-17T10:13:53.025Z,35.10
2022-08-17T10:16:28.606Z,35.00
2022-08-17T10:19:10.687Z,34.90
2022-08-17T10:22:32.313Z,34.80
2022-08-17T10:25:22.316Z,34.60
2022-08-17T10:27:57.780Z,34.50
2022-08-17T10:30:31.005Z,34.40
2022-08-17T10:33:02.265Z,34.30
2022-08-17T10:35:34.162Z,34.20
2022-08-17T10:38:28.653Z,34.20
2022-08-17T10:41:01.589Z,34.30
2022-08-17T10:44:37.498Z,34.40
2022-08-17T10:46:52.202Z,34.60
2022-08-17T10:49:32.688Z,34.90
2022-08-17T10:52:03.205Z,35.10
2022-08-17T10:54:40.081Z,35.20
2022-08-17T10:57:36.620Z,35.30
2022-08-17T11:00:12.984Z,35.30
2022-08-17T11:02:49.749Z,35.30
2022-08-17T11:05:43.743Z,35.40
2022-08-17T11:08:36.202Z,35.40
2022-08-17T11:11:50.066Z,35.30
2022-08-17T11:14:39.948Z,35.40
2022-08-17T11:17:23.175Z,35.60
2022-08-17T11:20:19.516Z,35.60
2022-08-17T11:23:15.206Z,35.60
2022-08-17T11:25:51.917Z,35.50
2022-08-17T11:28:26.645Z,35.40
2022-08-17T11:30:58.959Z,35.30
2022-08-17T11:33:54.087Z,35.30
2022-08-17T11:36:48.486Z,35.30
2022-08-17T11:39:29.909Z,35.40
2022-08-17T11:42:05.556Z,35.30
2022-08-17T11:44:48.024Z,35.20
2022-08-17T11:47:39.489Z,35.00
2022-08-17T11:50:45.047Z,34.80
2022-08-17T11:53:46.964Z,34.60
2022-08-17T11:56:33.733Z,34.50
2022-08-17T11:59:02.941Z,34.50
2022-08-17T12:01:55.801Z,34.60
2022-08-17T12:04:31.678Z,34.70
2022-08-17T12:07:08.374Z,34.60
2022-08-17T12:09:42.435Z,34.60
2022-08-17T12:12:15.144Z,34.50
2022-08-17T12:15:09.441Z,34.50
2022-08-17T12:17:46.739Z,34.50
2022-08-17T12:20:23.477Z,34.70
2022-08-17T12:23:03.735Z,34.70
2022-08-17T12:25:38.586Z,34.50
2022-08-17T12:28:20.146Z,34.50
2022-08-17T12:30:51.962Z,34.30
2022-08-17T12:33:28.461Z,34.20
2022-08-17T12:36:00.148Z,34.10
2022-08-17T12:38:32.384Z,33.90
2022-08-17T12:41:23.453Z,34.00
2022-08-17T12:43:56.831Z,34.10
2022-08-17T12:46:25.198Z,34.00
2022-08-17T12:48:59.964Z,34.10
2022-08-17T12:51:29.992Z,33.90
2022-08-17T12:54:00.653Z,33.90
2022-08-17T12:56:29.977Z,33.90
2022-08-17T12:58:58.650Z,33.90
2022-08-17T13:01:27.800Z,33.20
2022-08-17T13:03:59.866Z,32.80
2022-08-17T13:06:33.284Z,32.60
2022-08-17T13:09:09.844Z,33.30
2022-08-17T13:11:46.964Z,33.70
2022-08-17T13:14:18.453Z,33.90
2022-08-17T13:16:54.044Z,34.00
2022-08-17T13:19:39.804Z,34.20
2022-08-17T13:22:13.417Z,33.50
2022-08-17T13:24:54.547Z,33.70
2022-08-17T13:27:23.879Z,34.00
2022-08-17T13:29:56.487Z,34.20
2022-08-17T13:32:39.948Z,34.30
2022-08-17T13:35:39.455Z,34.30
2022-08-17T13:38:11.820Z,34.10
2022-08-17T13:40:50.243Z,34.10
2022-08-17T13:43:44.620Z,34.00
2022-08-17T13:46:22.601Z,33.90
2022-08-17T13:49:03.083Z,34.00
2022-08-17T13:51:43.323Z,34.00
2022-08-17T13:54:28.947Z,34.00
2022-08-17T13:57:01.322Z,34.00
2022-08-17T13:59:54.395Z,34.00
2022-08-17T14:02:28.552Z,33.90
2022-08-17T14:04:58.490Z,33.90
2022-08-17T14:07:34.974Z,33.90
2022-08-17T14:10:08.743Z,33.90
2022-08-17T14:12:40.316Z,34.00
2022-08-17T14:15:10.826Z,33.90
2022-08-17T14:17:39.363Z,33.80
2022-08-17T14:20:11.817Z,33.70
2022-08-17T14:22:45.076Z,33.50
2022-08-17T14:25:15.393Z,33.50
2022-08-17T14:27:52.883Z,33.50
2022-08-17T14:30:26.019Z,33.60
2022-08-17T14:32:56.634Z,33.70
2022-08-17T14:35:27.488Z,33.80
2022-08-17T14:37:57.731Z,33.80
2022-08-17T14:40:27.281Z,33.90
2022-08-17T14:42:57.821Z,33.90
2022-08-17T14:45:30.186Z,33.90
2022-08-17T14:48:01.217Z,33.80
2022-08-17T14:50:29.531Z,33.80
2022-08-17T14:53:04.551Z,33.80
2022-08-17T14:55:32.986Z,33.90
2022-08-17T14:58:01.471Z,33.80
2022-08-17T15:00:32.082Z,33.70
2022-08-17T15:03:02.483Z,33.60
2022-08-17T15:05:33.759Z,33.70
2022-08-17T15:08:07.966Z,33.70
2022-08-17T15:10:39.144Z,33.70
2022-08-17T15:13:21.639Z,33.70
2022-08-17T15:15:50.867Z,33.50
2022-08-17T15:18:20.106Z,33.50
2022-08-17T15:20:50.137Z,33.40
2022-08-17T15:23:22.621Z,33.30
2022-08-17T15:25:53.079Z,33.20
2022-08-17T15:28:22.838Z,33.30
2022-08-17T15:30:52.161Z,33.30
2022-08-17T15:33:29.242Z,33.40
2022-08-17T15:35:59.465Z,33.40
2022-08-17T15:38:39.186Z,33.50
2022-08-17T15:41:08.633Z,33.50
2022-08-17T15:43:37.711Z,33.60
2022-08-17T15:46:12.192Z,33.60
2022-08-17T15:48:42.707Z,33.60
2022-08-17T15:51:19.660Z,33.60
2022-08-17T15:53:52.597Z,33.60
2022-08-17T15:56:23.081Z,33.60
2022-08-17T15:58:52.138Z,33.50
2022-08-17T16:03:14.371Z,33.40
2022-08-17T16:04:30.199Z,33.40
2022-08-17T16:06:59.603Z,33.20
2022-08-17T16:09:29.783Z,33.20
2022-08-17T16:11:58.099Z,33.00
2022-08-17T16:14:34.240Z,33.00
2022-08-17T16:17:04.564Z,33.00
2022-08-17T16:19:34.386Z,33.00
2022-08-17T16:22:07.636Z,33.00
2022-08-17T16:24:38.433Z,33.10
2022-08-17T16:27:12.670Z,33.00
2022-08-17T16:29:42.416Z,33.00
2022-08-17T16:32:14.639Z,32.90
2022-08-17T16:34:43.636Z,32.80
2022-08-17T16:37:14.228Z,32.70
2022-08-17T16:39:43.936Z,32.70
2022-08-17T16:42:24.607Z,32.50
2022-08-17T16:44:53.772Z,32.40
2022-08-17T16:47:22.682Z,32.40
2022-08-17T16:49:51.645Z,32.30
2022-08-17T16:52:32.645Z,32.30
2022-08-17T16:55:05.057Z,32.30
2022-08-17T16:57:33.403Z,32.30
2022-08-17T17:00:01.884Z,32.20
2022-08-17T17:02:32.593Z,32.10
2022-08-17T17:05:09.141Z,32.00
2022-08-17T17:08:00.910Z,32.00
2022-08-17T17:10:37.189Z,31.90
2022-08-17T17:13:09.243Z,32.00
2022-08-17T17:15:49.413Z,32.00
2022-08-17T17:18:20.173Z,32.10
2022-08-17T17:20:56.030Z,32.00
2022-08-17T17:23:35.386Z,32.00
2022-08-17T17:26:17.283Z,31.90
2022-08-17T17:29:02.019Z,31.90
2022-08-17T17:31:39.346Z,31.80
2022-08-17T17:34:11.353Z,31.80
2022-08-17T17:36:42.806Z,31.70
2022-08-17T17:39:16.720Z,31.70
2022-08-17T17:41:50.525Z,31.70
2022-08-17T17:44:25.701Z,31.80
2022-08-17T17:46:58.438Z,31.70
2022-08-17T17:49:29.739Z,31.70
2022-08-17T17:52:10.298Z,31.60
2022-08-17T17:55:06.999Z,31.60
2022-08-17T17:57:50.660Z,31.50
2022-08-17T18:00:24.378Z,31.40
2022-08-17T18:03:06.453Z,31.40
2022-08-17T18:05:53.001Z,31.30
2022-08-17T18:08:34.870Z,31.30
2022-08-17T18:11:14.662Z,31.30
2022-08-17T18:14:11.251Z,31.30
2022-08-17T18:16:42.862Z,31.20
2022-08-17T18:19:14.428Z,31.10
2022-08-17T18:21:47.038Z,31.00
2022-08-17T18:24:15.652Z,31.00
2022-08-17T18:26:50.265Z,31.00
2022-08-17T18:29:31.314Z,30.90
2022-08-17T18:32:28.453Z,30.80
2022-08-17T18:35:00.150Z,30.70
2022-08-17T18:37:37.822Z,30.70
2022-08-17T18:40:26.273Z,30.60
2022-08-17T18:43:03.020Z,30.50
2022-08-17T18:45:40.873Z,30.60
2022-08-17T18:48:29.537Z,30.50
2022-08-17T18:51:00.658Z,30.50
2022-08-17T18:53:38.099Z,30.50
2022-08-17T18:56:26.750Z,30.40
2022-08-17T18:59:11.981Z,30.20
2022-08-17T19:01:59.716Z,30.20
2022-08-17T19:04:35.793Z,30.20
2022-08-17T19:07:11.775Z,30.10
2022-08-17T19:09:44.957Z,30.10
2022-08-17T19:12:27.169Z,30.10
2022-08-17T19:14:56.823Z,30.10
2022-08-17T19:17:35.436Z,30.10
2022-08-17T19:20:11.318Z,30.10
2022-08-17T19:22:54.540Z,30.20
2022-08-17T19:25:27.595Z,30.10
2022-08-17T19:28:00.877Z,30.10
2022-08-17T19:30:32.172Z,30.00
2022-08-17T19:33:02.886Z,29.90
2022-08-17T19:35:39.459Z,29.90
2022-08-17T19:38:13.625Z,29.80
2022-08-17T19:40:59.268Z,29.80
2022-08-17T19:43:39.392Z,29.80
2022-08-17T19:46:15.802Z,29.80
2022-08-17T19:48:53.385Z,29.80
2022-08-17T19:51:45.163Z,29.80
2022-08-17T19:54:20.511Z,29.80
2022-08-17T19:56:57.988Z,29.70
2022-08-17T19:59:48.967Z,29.60
2022-08-17T20:02:34.742Z,29.70
2022-08-17T20:05:09.374Z,29.60
2022-08-17T20:07:46.419Z,29.60
2022-08-17T20:10:21.851Z,29.60
2022-08-17T20:12:52.246Z,29.50
2022-08-17T20:15:26.895Z,29.40
2022-08-17T20:17:58.425Z,29.40
2022-08-17T20:20:34.687Z,29.50
2022-08-17T20:23:10.976Z,29.50
2022-08-17T20:25:47.190Z,29.50
2022-08-17T20:28:23.415Z,29.50
2022-08-17T20:30:52.875Z,29.50
2022-08-17T20:33:27.736Z,29.50
2022-08-17T20:36:19.399Z,29.50
2022-08-17T20:38:50.409Z,29.60
2022-08-17T20:41:22.383Z,29.70
2022-08-17T20:44:03.427Z,29.70
2022-08-17T20:46:52.240Z,29.70
2022-08-17T20:49:27.374Z,29.70
2022-08-17T20:52:02.794Z,29.80
2022-08-17T20:54:52.825Z,29.70
2022-08-17T20:57:47.392Z,29.50
2022-08-17T21:00:47.042Z,29.50
2022-08-17T21:03:51.901Z,29.50
2022-08-17T21:06:25.065Z,29.60
2022-08-17T21:08:59.024Z,29.70
2022-08-17T21:12:02.627Z,29.70
2022-08-17T21:14:45.265Z,29.70
2022-08-17T21:17:31.144Z,29.80
2022-08-17T21:20:11.404Z,29.70
2022-08-17T21:22:53.620Z,29.70
2022-08-17T21:25:56.010Z,29.50
2022-08-17T21:28:35.416Z,29.40
2022-08-17T21:31:08.705Z,29.40
2022-08-17T21:33:39.598Z,29.40
2022-08-17T21:36:26.614Z,29.50
2022-08-17T21:39:08.709Z,29.50
2022-08-17T21:41:52.861Z,29.60
2022-08-17T21:44:30.525Z,29.60
2022-08-17T21:47:14.661Z,29.70
2022-08-17T21:49:43.651Z,29.60
2022-08-17T21:52:15.949Z,29.70
2022-08-17T21:54:51.679Z,29.60
2022-08-17T21:57:27.518Z,29.60
2022-08-17T21:59:59.266Z,29.60
2022-08-17T22:02:32.222Z,29.50
2022-08-17T22:05:03.253Z,29.50
2022-08-17T22:07:38.589Z,29.40
2022-08-17T22:10:09.213Z,29.30
2022-08-17T22:12:38.918Z,29.20
2022-08-17T22:15:09.777Z,29.10
2022-08-17T22:17:42.247Z,29.10
2022-08-17T22:20:14.626Z,29.10
2022-08-17T22:23:39.974Z,29.00
2022-08-17T22:26:12.731Z,28.90
2022-08-17T22:28:46.861Z,28.80
2022-08-17T22:31:17.223Z,28.70
2022-08-17T22:33:49.004Z,28.60
2022-08-17T22:36:29.446Z,28.60
2022-08-17T22:39:03.124Z,28.60
2022-08-17T22:41:43.927Z,28.60
2022-08-17T22:44:23.209Z,28.70
2022-08-17T22:47:06.771Z,28.70
2022-08-17T22:49:54.045Z,28.80
2022-08-17T22:52:34.668Z,28.80
2022-08-17T22:55:26.664Z,28.80
2022-08-17T22:58:12.113Z,28.70
2022-08-17T23:00:44.910Z,28.70
2022-08-17T23:03:18.978Z,28.70
2022-08-17T23:05:49.890Z,28.60
2022-08-17T23:08:21.424Z,28.70
2022-08-17T23:10:50.339Z,28.70
2022-08-17T23:13:18.621Z,28.70
2022-08-17T23:15:52.149Z,28.70
2022-08-17T23:18:23.515Z,28.70
2022-08-17T23:20:54.720Z,28.70
2022-08-17T23:23:23.979Z,28.60
2022-08-17T23:25:52.349Z,28.50
2022-08-17T23:28:21.891Z,28.30
2022-08-17T23:30:54.070Z,28.20
2022-08-17T23:33:29.933Z,28.10
2022-08-17T23:35:58.876Z,27.90
2022-08-17T23:38:27.601Z,27.90
2022-08-17T23:41:01.021Z,27.90
2022-08-17T23:43:30.201Z,27.80
2022-08-17T23:46:03.723Z,27.90
2022-08-17T23:48:37.108Z,27.80
2022-08-17T23:51:13.405Z,27.70
2022-08-17T23:53:47.685Z,27.60
2022-08-17T23:56:24.095Z,27.60
2022-08-17T23:58:56.041Z,27.60
